METAR UND TAF INFORMATION
ENOL 080920Z 16006KT 9999 FEW011 SCT018 BKN030 14/12 Q1023 NOSIG

 FLUGHAFENKARTE

 RUNWAY INFORMATION
Runway 15 Runway length 8904 ft Runway width 148 ft
Runway elevation 18 ft Runway displaced threshold 0 ft Runway heading 154
Runway 33 Runway length 8904 ft Runway width 148 ft
Runway elevation 28 ft Runway displaced threshold 0 ft Runway heading 334

 AIRPORT FREQUENCIES
Type APP Name APP Frequency 118.25 MHZ
Type ARR Name ARR Frequency 126.2 MHZ
Type TWR Name TWR Frequency 118.7 MHZ

 AIRPORT NEAR NAVIGATION AIDS
Type TACAN Name Orland Frequency 111400 KHZ
Type NDB Name Uthaug Frequency 366 KHZ